sensor_id;sensor_type;location;lat;lon;timestamp;P1;durP1;ratioP1;P2;durP2;ratioP2
80707;SDS011;70222;49.204;-122.940;2023-11-21T00:01:57;3.83;;;1.45;;
80707;SDS011;70222;49.204;-122.940;2023-11-21T00:04:23;3.50;;;1.58;;
80707;SDS011;70222;49.204;-122.940;2023-11-21T00:06:50;2.67;;;1.42;;
80707;SDS011;70222;49.204;-122.940;2023-11-21T00:09:16;2.55;;;1.70;;
80707;SDS011;70222;49.204;-122.940;2023-11-21T00:11:44;2.58;;;1.40;;
80707;SDS011;70222;49.204;-122.940;2023-11-21T00:14:13;5.32;;;1.40;;
80707;SDS011;70222;49.204;-122.940;2023-11-21T00:16:40;4.68;;;1.70;;
80707;SDS011;70222;49.204;-122.940;2023-11-21T00:19:07;3.47;;;1.40;;
80707;SDS011;70222;49.204;-122.940;2023-11-21T00:21:33;3.38;;;1.83;;
80707;SDS011;70222;49.204;-122.940;2023-11-21T00:23:59;2.53;;;1.33;;
80707;SDS011;70222;49.204;-122.940;2023-11-21T00:26:25;4.28;;;1.92;;
80707;SDS011;70222;49.204;-122.940;2023-11-21T00:28:51;3.85;;;2.28;;
80707;SDS011;70222;49.204;-122.940;2023-11-21T00:31:17;5.65;;;2.92;;
80707;SDS011;70222;49.204;-122.940;2023-11-21T00:33:43;4.63;;;2.10;;
80707;SDS011;70222;49.204;-122.940;2023-11-21T00:36:09;4.03;;;2.42;;
80707;SDS011;70222;49.204;-122.940;2023-11-21T00:38:36;3.88;;;2.13;;
80707;SDS011;70222;49.204;-122.940;2023-11-21T00:41:05;4.30;;;2.25;;
80707;SDS011;70222;49.204;-122.940;2023-11-21T00:43:32;4.03;;;2.00;;
80707;SDS011;70222;49.204;-122.940;2023-11-21T00:46:03;3.97;;;2.22;;
80707;SDS011;70222;49.204;-122.940;2023-11-21T00:48:32;5.25;;;2.03;;
80707;SDS011;70222;49.204;-122.940;2023-11-21T00:50:58;2.65;;;1.73;;
80707;SDS011;70222;49.204;-122.940;2023-11-21T00:53:25;2.72;;;1.95;;
80707;SDS011;70222;49.204;-122.940;2023-11-21T00:55:51;3.22;;;1.55;;
80707;SDS011;70222;49.204;-122.940;2023-11-21T00:58:23;5.03;;;1.58;;
80707;SDS011;70222;49.204;-122.940;2023-11-21T01:00:49;3.42;;;1.75;;
80707;SDS011;70222;49.204;-122.940;2023-11-21T01:03:15;3.25;;;1.90;;
80707;SDS011;70222;49.204;-122.940;2023-11-21T01:05:42;4.35;;;2.15;;
80707;SDS011;70222;49.204;-122.940;2023-11-21T01:08:08;4.65;;;1.92;;
80707;SDS011;70222;49.204;-122.940;2023-11-21T01:10:34;3.80;;;2.35;;
80707;SDS011;70222;49.204;-122.940;2023-11-21T01:13:00;3.28;;;1.85;;
80707;SDS011;70222;49.204;-122.940;2023-11-21T01:15:27;4.47;;;2.00;;
80707;SDS011;70222;49.204;-122.940;2023-11-21T01:17:53;3.67;;;2.20;;
80707;SDS011;70222;49.204;-122.940;2023-11-21T01:20:19;4.13;;;2.47;;
80707;SDS011;70222;49.204;-122.940;2023-11-21T01:22:45;5.82;;;2.60;;
80707;SDS011;70222;49.204;-122.940;2023-11-21T01:25:13;5.18;;;2.45;;
80707;SDS011;70222;49.204;-122.940;2023-11-21T01:27:41;6.22;;;2.17;;
80707;SDS011;70222;49.204;-122.940;2023-11-21T01:30:08;4.15;;;2.30;;
80707;SDS011;70222;49.204;-122.940;2023-11-21T01:32:37;4.85;;;2.35;;
80707;SDS011;70222;49.204;-122.940;2023-11-21T01:35:04;4.00;;;2.30;;
80707;SDS011;70222;49.204;-122.940;2023-11-21T01:37:35;4.75;;;2.42;;
80707;SDS011;70222;49.204;-122.940;2023-11-21T01:40:01;2.97;;;2.33;;
80707;SDS011;70222;49.204;-122.940;2023-11-21T01:42:30;5.93;;;2.40;;
80707;SDS011;70222;49.204;-122.940;2023-11-21T01:44:56;3.22;;;2.13;;
80707;SDS011;70222;49.204;-122.940;2023-11-21T01:47:22;4.78;;;2.60;;
80707;SDS011;70222;49.204;-122.940;2023-11-21T01:49:49;5.85;;;2.35;;
80707;SDS011;70222;49.204;-122.940;2023-11-21T01:52:17;3.88;;;2.03;;
80707;SDS011;70222;49.204;-122.940;2023-11-21T01:57:10;4.85;;;2.40;;
80707;SDS011;70222;49.204;-122.940;2023-11-21T01:59:37;4.03;;;2.30;;
80707;SDS011;70222;49.204;-122.940;2023-11-21T02:02:06;5.82;;;2.53;;
80707;SDS011;70222;49.204;-122.940;2023-11-21T02:04:33;4.10;;;2.38;;
80707;SDS011;70222;49.204;-122.940;2023-11-21T02:07:00;3.33;;;2.20;;
80707;SDS011;70222;49.204;-122.940;2023-11-21T02:09:26;4.97;;;2.60;;
80707;SDS011;70222;49.204;-122.940;2023-11-21T02:11:54;4.03;;;2.33;;
80707;SDS011;70222;49.204;-122.940;2023-11-21T02:14:21;3.67;;;2.45;;
80707;SDS011;70222;49.204;-122.940;2023-11-21T02:16:50;6.28;;;2.67;;
80707;SDS011;70222;49.204;-122.940;2023-11-21T02:19:21;4.45;;;2.47;;
80707;SDS011;70222;49.204;-122.940;2023-11-21T02:21:51;4.07;;;2.50;;
80707;SDS011;70222;49.204;-122.940;2023-11-21T02:24:18;4.60;;;2.80;;
80707;SDS011;70222;49.204;-122.940;2023-11-21T02:26:45;3.45;;;2.20;;
80707;SDS011;70222;49.204;-122.940;2023-11-21T02:29:11;4.18;;;2.20;;
80707;SDS011;70222;49.204;-122.940;2023-11-21T02:31:38;2.58;;;1.73;;
80707;SDS011;70222;49.204;-122.940;2023-11-21T02:34:16;5.55;;;2.33;;
80707;SDS011;70222;49.204;-122.940;2023-11-21T02:36:45;2.78;;;1.75;;
80707;SDS011;70222;49.204;-122.940;2023-11-21T02:39:15;4.70;;;2.08;;
80707;SDS011;70222;49.204;-122.940;2023-11-21T02:41:47;4.60;;;2.30;;
80707;SDS011;70222;49.204;-122.940;2023-11-21T02:44:13;3.63;;;2.13;;
80707;SDS011;70222;49.204;-122.940;2023-11-21T02:46:39;3.08;;;2.28;;
80707;SDS011;70222;49.204;-122.940;2023-11-21T02:49:06;4.55;;;2.38;;
80707;SDS011;70222;49.204;-122.940;2023-11-21T02:51:32;3.00;;;2.05;;
80707;SDS011;70222;49.204;-122.940;2023-11-21T02:53:59;4.07;;;2.00;;
80707;SDS011;70222;49.204;-122.940;2023-11-21T02:56:28;5.22;;;2.05;;
80707;SDS011;70222;49.204;-122.940;2023-11-21T02:58:59;2.40;;;1.90;;
80707;SDS011;70222;49.204;-122.940;2023-11-21T03:01:25;2.50;;;1.80;;
80707;SDS011;70222;49.204;-122.940;2023-11-21T03:03:52;2.30;;;1.58;;
80707;SDS011;70222;49.204;-122.940;2023-11-21T03:06:20;2.50;;;1.50;;
80707;SDS011;70222;49.204;-122.940;2023-11-21T03:08:46;2.90;;;1.73;;
80707;SDS011;70222;49.204;-122.940;2023-11-21T03:11:13;2.00;;;1.50;;
80707;SDS011;70222;49.204;-122.940;2023-11-21T03:13:40;2.78;;;1.67;;
80707;SDS011;70222;49.204;-122.940;2023-11-21T03:16:10;3.67;;;2.00;;
80707;SDS011;70222;49.204;-122.940;2023-11-21T03:18:36;1.92;;;1.45;;
80707;SDS011;70222;49.204;-122.940;2023-11-21T03:21:06;5.80;;;1.77;;
80707;SDS011;70222;49.204;-122.940;2023-11-21T03:23:35;3.22;;;1.67;;
80707;SDS011;70222;49.204;-122.940;2023-11-21T03:26:02;2.22;;;1.42;;
80707;SDS011;70222;49.204;-122.940;2023-11-21T03:28:29;2.90;;;1.58;;
80707;SDS011;70222;49.204;-122.940;2023-11-21T03:30:55;3.35;;;1.90;;
80707;SDS011;70222;49.204;-122.940;2023-11-21T03:33:21;4.45;;;1.83;;
80707;SDS011;70222;49.204;-122.940;2023-11-21T03:35:48;2.47;;;1.80;;
80707;SDS011;70222;49.204;-122.940;2023-11-21T03:38:14;3.63;;;1.92;;
80707;SDS011;70222;49.204;-122.940;2023-11-21T03:40:42;1.98;;;1.52;;
80707;SDS011;70222;49.204;-122.940;2023-11-21T03:43:08;4.93;;;1.77;;
80707;SDS011;70222;49.204;-122.940;2023-11-21T03:45:34;3.15;;;2.05;;
80707;SDS011;70222;49.204;-122.940;2023-11-21T03:48:00;3.80;;;1.67;;
80707;SDS011;70222;49.204;-122.940;2023-11-21T03:50:28;3.22;;;1.48;;
80707;SDS011;70222;49.204;-122.940;2023-11-21T03:52:54;3.08;;;1.83;;
80707;SDS011;70222;49.204;-122.940;2023-11-21T03:55:21;2.85;;;1.50;;
80707;SDS011;70222;49.204;-122.940;2023-11-21T04:02:41;1.20;;;1.10;;
80707;SDS011;70222;49.204;-122.940;2023-11-21T04:05:07;1.40;;;1.30;;
80707;SDS011;70222;49.204;-122.940;2023-11-21T04:07:34;2.85;;;1.55;;
80707;SDS011;70222;49.204;-122.940;2023-11-21T04:10:02;2.33;;;1.60;;
80707;SDS011;70222;49.204;-122.940;2023-11-21T04:12:29;3.47;;;2.15;;
80707;SDS011;70222;49.204;-122.940;2023-11-21T04:14:55;2.35;;;1.50;;
80707;SDS011;70222;49.204;-122.940;2023-11-21T04:17:21;1.88;;;1.60;;
80707;SDS011;70222;49.204;-122.940;2023-11-21T04:19:47;2.20;;;1.48;;
80707;SDS011;70222;49.204;-122.940;2023-11-21T04:22:13;1.95;;;1.27;;
80707;SDS011;70222;49.204;-122.940;2023-11-21T04:24:39;3.90;;;1.63;;
80707;SDS011;70222;49.204;-122.940;2023-11-21T04:27:06;2.40;;;1.42;;
80707;SDS011;70222;49.204;-122.940;2023-11-21T04:29:32;2.05;;;1.38;;
80707;SDS011;70222;49.204;-122.940;2023-11-21T04:32:00;2.65;;;1.75;;
80707;SDS011;70222;49.204;-122.940;2023-11-21T04:34:28;4.43;;;1.60;;
80707;SDS011;70222;49.204;-122.940;2023-11-21T04:36:56;4.82;;;1.50;;
80707;SDS011;70222;49.204;-122.940;2023-11-21T04:39:22;1.77;;;1.40;;
80707;SDS011;70222;49.204;-122.940;2023-11-21T04:41:49;2.38;;;1.58;;
80707;SDS011;70222;49.204;-122.940;2023-11-21T04:44:16;1.70;;;1.13;;
80707;SDS011;70222;49.204;-122.940;2023-11-21T04:46:42;2.03;;;1.45;;
80707;SDS011;70222;49.204;-122.940;2023-11-21T04:49:08;2.40;;;1.33;;
80707;SDS011;70222;49.204;-122.940;2023-11-21T04:51:36;2.30;;;1.50;;
80707;SDS011;70222;49.204;-122.940;2023-11-21T04:54:02;2.58;;;1.50;;
80707;SDS011;70222;49.204;-122.940;2023-11-21T04:56:31;3.20;;;1.40;;
80707;SDS011;70222;49.204;-122.940;2023-11-21T04:58:57;2.97;;;1.67;;
80707;SDS011;70222;49.204;-122.940;2023-11-21T05:01:23;3.25;;;1.50;;
80707;SDS011;70222;49.204;-122.940;2023-11-21T05:03:49;2.55;;;1.60;;
80707;SDS011;70222;49.204;-122.940;2023-11-21T05:06:16;2.38;;;1.42;;
80707;SDS011;70222;49.204;-122.940;2023-11-21T05:08:42;1.98;;;1.38;;
80707;SDS011;70222;49.204;-122.940;2023-11-21T05:11:08;2.67;;;1.50;;
80707;SDS011;70222;49.204;-122.940;2023-11-21T05:13:36;2.20;;;1.40;;
80707;SDS011;70222;49.204;-122.940;2023-11-21T05:16:02;3.55;;;1.70;;
80707;SDS011;70222;49.204;-122.940;2023-11-21T05:18:32;7.35;;;1.80;;
80707;SDS011;70222;49.204;-122.940;2023-11-21T05:21:01;2.92;;;1.88;;
80707;SDS011;70222;49.204;-122.940;2023-11-21T05:23:28;1.83;;;1.60;;
80707;SDS011;70222;49.204;-122.940;2023-11-21T05:25:54;3.38;;;1.90;;
80707;SDS011;70222;49.204;-122.940;2023-11-21T05:28:21;2.92;;;1.73;;
80707;SDS011;70222;49.204;-122.940;2023-11-21T05:30:47;4.18;;;2.05;;
80707;SDS011;70222;49.204;-122.940;2023-11-21T05:33:15;2.92;;;1.63;;
80707;SDS011;70222;49.204;-122.940;2023-11-21T05:35:41;1.58;;;1.27;;
80707;SDS011;70222;49.204;-122.940;2023-11-21T05:38:07;2.35;;;1.45;;
80707;SDS011;70222;49.204;-122.940;2023-11-21T05:40:33;3.70;;;1.45;;
80707;SDS011;70222;49.204;-122.940;2023-11-21T05:43:00;1.40;;;1.20;;
80707;SDS011;70222;49.204;-122.940;2023-11-21T05:45:26;2.03;;;1.50;;
80707;SDS011;70222;49.204;-122.940;2023-11-21T05:47:52;1.55;;;1.15;;
80707;SDS011;70222;49.204;-122.940;2023-11-21T05:50:18;2.45;;;1.40;;
80707;SDS011;70222;49.204;-122.940;2023-11-21T05:52:45;2.22;;;1.25;;
80707;SDS011;70222;49.204;-122.940;2023-11-21T05:55:11;5.00;;;1.85;;
80707;SDS011;70222;49.204;-122.940;2023-11-21T05:57:38;6.90;;;2.33;;
80707;SDS011;70222;49.204;-122.940;2023-11-21T06:00:06;4.97;;;1.77;;
80707;SDS011;70222;49.204;-122.940;2023-11-21T06:02:38;4.28;;;1.73;;
80707;SDS011;70222;49.204;-122.940;2023-11-21T06:05:06;3.50;;;1.60;;
80707;SDS011;70222;49.204;-122.940;2023-11-21T06:07:32;3.53;;;1.40;;
80707;SDS011;70222;49.204;-122.940;2023-11-21T06:09:59;2.60;;;1.40;;
80707;SDS011;70222;49.204;-122.940;2023-11-21T06:12:27;1.75;;;1.23;;
80707;SDS011;70222;49.204;-122.940;2023-11-21T06:14:54;1.85;;;1.60;;
80707;SDS011;70222;49.204;-122.940;2023-11-21T06:17:23;3.88;;;1.92;;
80707;SDS011;70222;49.204;-122.940;2023-11-21T06:19:50;3.83;;;2.33;;
80707;SDS011;70222;49.204;-122.940;2023-11-21T06:22:18;7.10;;;2.83;;
80707;SDS011;70222;49.204;-122.940;2023-11-21T06:24:44;2.97;;;1.60;;
80707;SDS011;70222;49.204;-122.940;2023-11-21T06:27:10;3.70;;;1.77;;
80707;SDS011;70222;49.204;-122.940;2023-11-21T06:29:36;3.63;;;1.88;;
80707;SDS011;70222;49.204;-122.940;2023-11-21T06:32:02;5.00;;;2.30;;
80707;SDS011;70222;49.204;-122.940;2023-11-21T06:34:30;3.63;;;1.70;;
80707;SDS011;70222;49.204;-122.940;2023-11-21T06:36:56;3.22;;;1.60;;
80707;SDS011;70222;49.204;-122.940;2023-11-21T06:39:22;4.45;;;1.70;;
80707;SDS011;70222;49.204;-122.940;2023-11-21T06:41:49;2.78;;;1.08;;
80707;SDS011;70222;49.204;-122.940;2023-11-21T06:44:15;2.72;;;1.55;;
80707;SDS011;70222;49.204;-122.940;2023-11-21T06:46:41;2.42;;;1.60;;
80707;SDS011;70222;49.204;-122.940;2023-11-21T06:49:08;3.58;;;1.88;;
80707;SDS011;70222;49.204;-122.940;2023-11-21T06:51:34;2.28;;;1.60;;
80707;SDS011;70222;49.204;-122.940;2023-11-21T06:54:00;2.55;;;1.67;;
80707;SDS011;70222;49.204;-122.940;2023-11-21T06:56:26;4.32;;;1.77;;
80707;SDS011;70222;49.204;-122.940;2023-11-21T06:58:52;1.63;;;1.33;;
80707;SDS011;70222;49.204;-122.940;2023-11-21T07:01:19;3.50;;;1.63;;
80707;SDS011;70222;49.204;-122.940;2023-11-21T07:03:51;1.98;;;1.50;;
80707;SDS011;70222;49.204;-122.940;2023-11-21T07:06:17;4.28;;;2.00;;
80707;SDS011;70222;49.204;-122.940;2023-11-21T07:08:43;2.75;;;1.83;;
80707;SDS011;70222;49.204;-122.940;2023-11-21T07:11:10;1.80;;;1.40;;
80707;SDS011;70222;49.204;-122.940;2023-11-21T07:13:37;1.38;;;1.20;;
80707;SDS011;70222;49.204;-122.940;2023-11-21T07:16:03;2.10;;;1.35;;
80707;SDS011;70222;49.204;-122.940;2023-11-21T07:18:30;2.08;;;1.35;;
80707;SDS011;70222;49.204;-122.940;2023-11-21T07:20:56;4.40;;;1.60;;
80707;SDS011;70222;49.204;-122.940;2023-11-21T07:23:23;3.30;;;1.48;;
80707;SDS011;70222;49.204;-122.940;2023-11-21T07:25:49;5.13;;;2.03;;
80707;SDS011;70222;49.204;-122.940;2023-11-21T07:28:21;2.78;;;1.75;;
80707;SDS011;70222;49.204;-122.940;2023-11-21T07:30:47;4.47;;;1.58;;
80707;SDS011;70222;49.204;-122.940;2023-11-21T07:33:13;2.67;;;1.40;;
80707;SDS011;70222;49.204;-122.940;2023-11-21T07:35:39;3.47;;;2.03;;
80707;SDS011;70222;49.204;-122.940;2023-11-21T07:38:05;2.25;;;1.40;;
80707;SDS011;70222;49.204;-122.940;2023-11-21T07:40:34;3.15;;;1.52;;
80707;SDS011;70222;49.204;-122.940;2023-11-21T07:43:01;2.97;;;1.85;;
80707;SDS011;70222;49.204;-122.940;2023-11-21T07:45:27;2.88;;;1.65;;
80707;SDS011;70222;49.204;-122.940;2023-11-21T07:47:54;2.97;;;1.70;;
80707;SDS011;70222;49.204;-122.940;2023-11-21T07:50:21;2.40;;;1.60;;
80707;SDS011;70222;49.204;-122.940;2023-11-21T07:52:51;3.05;;;1.80;;
80707;SDS011;70222;49.204;-122.940;2023-11-21T07:55:17;4.60;;;1.70;;
80707;SDS011;70222;49.204;-122.940;2023-11-21T07:57:43;2.90;;;1.70;;
80707;SDS011;70222;49.204;-122.940;2023-11-21T08:00:09;2.25;;;1.50;;
80707;SDS011;70222;49.204;-122.940;2023-11-21T08:02:38;2.00;;;1.40;;
80707;SDS011;70222;49.204;-122.940;2023-11-21T08:05:07;2.83;;;1.63;;
80707;SDS011;70222;49.204;-122.940;2023-11-21T08:07:34;3.80;;;1.67;;
80707;SDS011;70222;49.204;-122.940;2023-11-21T08:10:01;2.83;;;1.73;;
80707;SDS011;70222;49.204;-122.940;2023-11-21T08:12:27;2.20;;;1.48;;
80707;SDS011;70222;49.204;-122.940;2023-11-21T08:14:53;1.83;;;1.45;;
80707;SDS011;70222;49.204;-122.940;2023-11-21T08:17:20;2.38;;;1.40;;
80707;SDS011;70222;49.204;-122.940;2023-11-21T08:19:46;3.60;;;1.50;;
80707;SDS011;70222;49.204;-122.940;2023-11-21T08:22:15;3.58;;;1.38;;
80707;SDS011;70222;49.204;-122.940;2023-11-21T08:24:43;1.98;;;1.63;;
80707;SDS011;70222;49.204;-122.940;2023-11-21T08:27:10;3.60;;;1.73;;
80707;SDS011;70222;49.204;-122.940;2023-11-21T08:29:36;1.90;;;1.40;;
80707;SDS011;70222;49.204;-122.940;2023-11-21T08:32:02;3.05;;;1.70;;
80707;SDS011;70222;49.204;-122.940;2023-11-21T08:34:30;1.88;;;1.30;;
80707;SDS011;70222;49.204;-122.940;2023-11-21T08:36:56;3.05;;;1.60;;
80707;SDS011;70222;49.204;-122.940;2023-11-21T08:39:22;2.50;;;1.60;;
80707;SDS011;70222;49.204;-122.940;2023-11-21T08:41:49;2.10;;;1.55;;
80707;SDS011;70222;49.204;-122.940;2023-11-21T08:44:16;1.98;;;1.55;;
80707;SDS011;70222;49.204;-122.940;2023-11-21T08:46:46;1.58;;;1.45;;
80707;SDS011;70222;49.204;-122.940;2023-11-21T08:49:13;1.63;;;1.30;;
80707;SDS011;70222;49.204;-122.940;2023-11-21T08:54:06;2.35;;;1.20;;
80707;SDS011;70222;49.204;-122.940;2023-11-21T08:56:37;3.63;;;1.52;;
80707;SDS011;70222;49.204;-122.940;2023-11-21T08:59:03;1.45;;;1.20;;
80707;SDS011;70222;49.204;-122.940;2023-11-21T09:01:29;2.85;;;1.63;;
80707;SDS011;70222;49.204;-122.940;2023-11-21T09:03:58;2.05;;;1.48;;
80707;SDS011;70222;49.204;-122.940;2023-11-21T09:06:30;3.05;;;1.67;;
80707;SDS011;70222;49.204;-122.940;2023-11-21T09:08:56;1.52;;;1.25;;
80707;SDS011;70222;49.204;-122.940;2023-11-21T09:11:22;2.17;;;1.38;;
80707;SDS011;70222;49.204;-122.940;2023-11-21T09:13:50;2.20;;;1.00;;
80707;SDS011;70222;49.204;-122.940;2023-11-21T09:16:16;1.92;;;1.30;;
80707;SDS011;70222;49.204;-122.940;2023-11-21T09:18:42;2.10;;;1.45;;
80707;SDS011;70222;49.204;-122.940;2023-11-21T09:23:36;2.50;;;1.35;;
80707;SDS011;70222;49.204;-122.940;2023-11-21T09:26:02;2.90;;;1.33;;
80707;SDS011;70222;49.204;-122.940;2023-11-21T09:28:28;1.98;;;1.48;;
80707;SDS011;70222;49.204;-122.940;2023-11-21T09:30:54;1.30;;;1.08;;
80707;SDS011;70222;49.204;-122.940;2023-11-21T09:33:20;3.33;;;1.75;;
80707;SDS011;70222;49.204;-122.940;2023-11-21T09:35:50;3.22;;;1.27;;
80707;SDS011;70222;49.204;-122.940;2023-11-21T09:38:17;2.40;;;1.35;;
80707;SDS011;70222;49.204;-122.940;2023-11-21T09:40:44;2.15;;;1.20;;
80707;SDS011;70222;49.204;-122.940;2023-11-21T09:43:17;2.20;;;1.45;;
80707;SDS011;70222;49.204;-122.940;2023-11-21T09:45:47;1.20;;;1.10;;
80707;SDS011;70222;49.204;-122.940;2023-11-21T09:48:15;1.92;;;1.42;;
80707;SDS011;70222;49.204;-122.940;2023-11-21T09:50:42;2.55;;;1.52;;
80707;SDS011;70222;49.204;-122.940;2023-11-21T09:53:12;1.63;;;1.40;;
80707;SDS011;70222;49.204;-122.940;2023-11-21T09:55:45;1.88;;;1.17;;
80707;SDS011;70222;49.204;-122.940;2023-11-21T09:58:13;2.30;;;1.30;;
80707;SDS011;70222;49.204;-122.940;2023-11-21T10:00:43;2.28;;;1.58;;
80707;SDS011;70222;49.204;-122.940;2023-11-21T10:03:11;2.08;;;1.15;;
80707;SDS011;70222;49.204;-122.940;2023-11-21T10:05:38;2.47;;;1.50;;
80707;SDS011;70222;49.204;-122.940;2023-11-21T10:08:07;2.20;;;1.48;;
80707;SDS011;70222;49.204;-122.940;2023-11-21T10:10:35;2.47;;;1.40;;
80707;SDS011;70222;49.204;-122.940;2023-11-21T10:13:03;2.15;;;1.58;;
80707;SDS011;70222;49.204;-122.940;2023-11-21T10:15:35;4.70;;;2.08;;
80707;SDS011;70222;49.204;-122.940;2023-11-21T10:18:02;2.30;;;1.42;;
80707;SDS011;70222;49.204;-122.940;2023-11-21T10:22:56;2.13;;;1.40;;
80707;SDS011;70222;49.204;-122.940;2023-11-21T10:25:22;4.45;;;1.08;;
80707;SDS011;70222;49.204;-122.940;2023-11-21T10:27:48;2.17;;;1.35;;
80707;SDS011;70222;49.204;-122.940;2023-11-21T10:30:18;3.05;;;1.45;;
80707;SDS011;70222;49.204;-122.940;2023-11-21T10:32:44;1.48;;;1.00;;
80707;SDS011;70222;49.204;-122.940;2023-11-21T10:35:10;3.80;;;1.58;;
80707;SDS011;70222;49.204;-122.940;2023-11-21T10:37:39;0.75;;;0.75;;
80707;SDS011;70222;49.204;-122.940;2023-11-21T10:40:06;1.58;;;1.20;;
80707;SDS011;70222;49.204;-122.940;2023-11-21T10:42:37;2.42;;;1.10;;
80707;SDS011;70222;49.204;-122.940;2023-11-21T10:45:07;2.28;;;1.15;;
80707;SDS011;70222;49.204;-122.940;2023-11-21T10:47:39;1.42;;;1.33;;
80707;SDS011;70222;49.204;-122.940;2023-11-21T10:50:07;1.42;;;0.82;;
80707;SDS011;70222;49.204;-122.940;2023-11-21T10:52:39;1.58;;;1.13;;
80707;SDS011;70222;49.204;-122.940;2023-11-21T10:55:20;1.15;;;1.05;;
80707;SDS011;70222;49.204;-122.940;2023-11-21T10:57:52;1.75;;;1.20;;
80707;SDS011;70222;49.204;-122.940;2023-11-21T11:00:21;1.75;;;1.02;;
80707;SDS011;70222;49.204;-122.940;2023-11-21T11:02:51;1.77;;;1.05;;
80707;SDS011;70222;49.204;-122.940;2023-11-21T11:05:20;1.67;;;0.98;;
80707;SDS011;70222;49.204;-122.940;2023-11-21T11:07:50;2.38;;;1.17;;
80707;SDS011;70222;49.204;-122.940;2023-11-21T11:10:20;2.22;;;1.20;;
80707;SDS011;70222;49.204;-122.940;2023-11-21T11:12:48;1.55;;;0.80;;
80707;SDS011;70222;49.204;-122.940;2023-11-21T11:15:17;0.70;;;0.70;;
80707;SDS011;70222;49.204;-122.940;2023-11-21T11:17:45;1.55;;;1.08;;
80707;SDS011;70222;49.204;-122.940;2023-11-21T11:22:40;2.45;;;1.10;;
80707;SDS011;70222;49.204;-122.940;2023-11-21T11:28:11;1.20;;;0.93;;
80707;SDS011;70222;49.204;-122.940;2023-11-21T11:30:50;1.83;;;1.48;;
80707;SDS011;70222;49.204;-122.940;2023-11-21T11:33:34;3.15;;;1.58;;
80707;SDS011;70222;49.204;-122.940;2023-11-21T11:36:47;2.67;;;1.20;;
80707;SDS011;70222;49.204;-122.940;2023-11-21T11:39:01;1.23;;;1.00;;
80707;SDS011;70222;49.204;-122.940;2023-11-21T11:41:31;1.63;;;1.20;;
80707;SDS011;70222;49.204;-122.940;2023-11-21T11:44:02;1.83;;;1.17;;
80707;SDS011;70222;49.204;-122.940;2023-11-21T11:46:42;1.40;;;0.88;;
80707;SDS011;70222;49.204;-122.940;2023-11-21T11:49:23;1.40;;;1.20;;
80707;SDS011;70222;49.204;-122.940;2023-11-21T11:54:55;1.95;;;1.00;;
80707;SDS011;70222;49.204;-122.940;2023-11-21T11:57:24;1.38;;;1.13;;
80707;SDS011;70222;49.204;-122.940;2023-11-21T12:02:57;3.83;;;1.45;;
80707;SDS011;70222;49.204;-122.940;2023-11-21T12:05:33;2.10;;;1.30;;
80707;SDS011;70222;49.204;-122.940;2023-11-21T12:08:07;1.85;;;1.45;;
80707;SDS011;70222;49.204;-122.940;2023-11-21T12:10:34;3.25;;;1.80;;
80707;SDS011;70222;49.204;-122.940;2023-11-21T12:13:01;2.08;;;1.23;;
80707;SDS011;70222;49.204;-122.940;2023-11-21T12:15:35;1.23;;;1.13;;
80707;SDS011;70222;49.204;-122.940;2023-11-21T12:18:02;2.28;;;1.05;;
80707;SDS011;70222;49.204;-122.940;2023-11-21T12:20:31;1.38;;;0.98;;
80707;SDS011;70222;49.204;-122.940;2023-11-21T12:23:03;2.20;;;1.17;;
80707;SDS011;70222;49.204;-122.940;2023-11-21T12:25:30;1.50;;;1.00;;
80707;SDS011;70222;49.204;-122.940;2023-11-21T12:27:58;1.45;;;1.25;;
80707;SDS011;70222;49.204;-122.940;2023-11-21T12:30:31;1.40;;;1.13;;
80707;SDS011;70222;49.204;-122.940;2023-11-21T12:33:01;2.28;;;1.30;;
80707;SDS011;70222;49.204;-122.940;2023-11-21T12:35:30;2.17;;;1.35;;
80707;SDS011;70222;49.204;-122.940;2023-11-21T12:37:59;2.60;;;1.38;;
80707;SDS011;70222;49.204;-122.940;2023-11-21T12:40:28;2.22;;;1.35;;
80707;SDS011;70222;49.204;-122.940;2023-11-21T12:42:55;4.88;;;1.58;;
80707;SDS011;70222;49.204;-122.940;2023-11-21T12:45:23;3.05;;;1.77;;
80707;SDS011;70222;49.204;-122.940;2023-11-21T12:47:59;2.45;;;1.73;;
80707;SDS011;70222;49.204;-122.940;2023-11-21T12:50:29;2.92;;;1.60;;
80707;SDS011;70222;49.204;-122.940;2023-11-21T12:53:03;1.85;;;1.50;;
80707;SDS011;70222;49.204;-122.940;2023-11-21T12:55:31;0.93;;;0.90;;
80707;SDS011;70222;49.204;-122.940;2023-11-21T12:58:00;2.10;;;1.40;;
80707;SDS011;70222;49.204;-122.940;2023-11-21T13:00:44;2.45;;;1.38;;
80707;SDS011;70222;49.204;-122.940;2023-11-21T13:03:13;1.52;;;1.20;;
80707;SDS011;70222;49.204;-122.940;2023-11-21T13:05:46;1.98;;;1.27;;
80707;SDS011;70222;49.204;-122.940;2023-11-21T13:08:16;2.38;;;1.45;;
80707;SDS011;70222;49.204;-122.940;2023-11-21T13:10:46;2.25;;;1.30;;
80707;SDS011;70222;49.204;-122.940;2023-11-21T13:13:13;1.63;;;1.30;;
80707;SDS011;70222;49.204;-122.940;2023-11-21T13:18:18;2.08;;;1.45;;
80707;SDS011;70222;49.204;-122.940;2023-11-21T13:20:47;1.70;;;1.30;;
80707;SDS011;70222;49.204;-122.940;2023-11-21T13:23:13;2.63;;;1.60;;
80707;SDS011;70222;49.204;-122.940;2023-11-21T13:25:44;1.70;;;1.17;;
80707;SDS011;70222;49.204;-122.940;2023-11-21T13:28:11;2.35;;;0.90;;
80707;SDS011;70222;49.204;-122.940;2023-11-21T13:30:37;3.28;;;1.60;;
80707;SDS011;70222;49.204;-122.940;2023-11-21T13:33:05;4.18;;;1.40;;
80707;SDS011;70222;49.204;-122.940;2023-11-21T13:35:33;2.50;;;1.70;;
80707;SDS011;70222;49.204;-122.940;2023-11-21T13:38:07;2.50;;;1.60;;
80707;SDS011;70222;49.204;-122.940;2023-11-21T13:40:35;2.80;;;1.35;;
80707;SDS011;70222;49.204;-122.940;2023-11-21T13:43:10;1.90;;;1.30;;
80707;SDS011;70222;49.204;-122.940;2023-11-21T13:45:37;2.03;;;1.33;;
80707;SDS011;70222;49.204;-122.940;2023-11-21T13:48:07;2.65;;;1.60;;
80707;SDS011;70222;49.204;-122.940;2023-11-21T13:50:42;2.63;;;1.50;;
80707;SDS011;70222;49.204;-122.940;2023-11-21T13:53:20;1.58;;;1.10;;
80707;SDS011;70222;49.204;-122.940;2023-11-21T13:55:53;1.85;;;1.40;;
80707;SDS011;70222;49.204;-122.940;2023-11-21T13:58:21;2.60;;;1.60;;
80707;SDS011;70222;49.204;-122.940;2023-11-21T14:01:25;1.80;;;1.40;;
80707;SDS011;70222;49.204;-122.940;2023-11-21T14:04:03;2.55;;;1.75;;
80707;SDS011;70222;49.204;-122.940;2023-11-21T14:06:45;2.20;;;1.60;;
80707;SDS011;70222;49.204;-122.940;2023-11-21T14:09:17;1.60;;;1.33;;
80707;SDS011;70222;49.204;-122.940;2023-11-21T14:11:51;4.60;;;1.48;;
80707;SDS011;70222;49.204;-122.940;2023-11-21T14:14:19;1.77;;;1.05;;
80707;SDS011;70222;49.204;-122.940;2023-11-21T14:16:46;1.77;;;1.30;;
80707;SDS011;70222;49.204;-122.940;2023-11-21T14:19:12;2.13;;;1.65;;
80707;SDS011;70222;49.204;-122.940;2023-11-21T14:21:42;3.58;;;1.75;;
80707;SDS011;70222;49.204;-122.940;2023-11-21T14:24:09;2.20;;;1.52;;
80707;SDS011;70222;49.204;-122.940;2023-11-21T14:26:41;2.70;;;1.50;;
80707;SDS011;70222;49.204;-122.940;2023-11-21T14:29:10;2.08;;;1.30;;
80707;SDS011;70222;49.204;-122.940;2023-11-21T14:31:40;1.92;;;1.42;;
80707;SDS011;70222;49.204;-122.940;2023-11-21T14:34:07;3.40;;;1.30;;
80707;SDS011;70222;49.204;-122.940;2023-11-21T14:36:33;2.80;;;1.30;;
80707;SDS011;70222;49.204;-122.940;2023-11-21T14:41:26;1.60;;;1.08;;
80707;SDS011;70222;49.204;-122.940;2023-11-21T14:46:20;2.17;;;1.23;;
80707;SDS011;70222;49.204;-122.940;2023-11-21T14:48:47;2.60;;;1.30;;